METAR Data
IDs: Format: Raw Decoded Include TAF

Data at: 0201 UTC 01 Mar 2021

KUYF 010155Z AUTO 24009KT 10SM -DZ SCT015 SCT020 OVC025 13/12 A2977 RMK AO2